createdAt,value
2019-02-18T00:00:09.391Z,59.4
2019-02-18T00:00:59.146Z,59.4
2019-02-18T00:01:49.286Z,59.4
2019-02-18T00:02:39.283Z,59.4
2019-02-18T00:03:29.959Z,59.3
2019-02-18T00:04:19.698Z,59.3
2019-02-18T00:05:09.510Z,59.3
2019-02-18T00:06:00.118Z,59.3
2019-02-18T00:06:50.113Z,59.3
2019-02-18T00:07:39.647Z,59.3
2019-02-18T00:08:29.698Z,59.3
2019-02-18T00:09:19.758Z,59.3
2019-02-18T00:10:09.627Z,59.3
2019-02-18T00:10:59.397Z,59.2
2019-02-18T00:11:49.701Z,59.2
2019-02-18T00:12:40.033Z,59.1
2019-02-18T00:13:30.041Z,59.1
2019-02-18T00:14:20.070Z,59.1
2019-02-18T00:15:10.503Z,59.1
2019-02-18T00:15:59.948Z,59.1
2019-02-18T00:16:49.773Z,59.1
2019-02-18T00:17:40.590Z,59.1
2019-02-18T00:18:30.707Z,59.1
2019-02-18T00:19:20.455Z,59.1
2019-02-18T00:20:10.240Z,59
2019-02-18T00:21:00.895Z,59
2019-02-18T00:21:50.882Z,59
2019-02-18T00:22:41.210Z,58.9
2019-02-18T00:23:31.018Z,58.9
2019-02-18T00:24:21.344Z,58.9
2019-02-18T00:25:10.831Z,58.9
2019-02-18T00:26:00.913Z,58.9
2019-02-18T00:26:50.965Z,58.9
2019-02-18T00:27:41.296Z,58.9
2019-02-18T00:28:31.622Z,58.9
2019-02-18T00:29:21.157Z,58.9
2019-02-18T00:30:10.948Z,58.8
2019-02-18T00:31:01.253Z,58.8
2019-02-18T00:31:51.564Z,58.8
2019-02-18T00:32:41.632Z,58.8
2019-02-18T00:33:31.696Z,58.8
2019-02-18T00:34:21.741Z,58.8
2019-02-18T00:35:11.549Z,58.8
2019-02-18T00:36:02.153Z,58.8
2019-02-18T00:36:51.647Z,58.8
2019-02-18T00:37:41.966Z,58.7
2019-02-18T00:38:32.324Z,58.7
2019-02-18T00:39:22.101Z,58.7
2019-02-18T00:40:12.170Z,58.6
2019-02-18T00:41:02.243Z,58.6
2019-02-18T00:41:53.000Z,58.6
2019-02-18T00:42:42.343Z,58.6
2019-02-18T00:43:32.683Z,58.6
2019-02-18T00:47:42.688Z,58.5
2019-02-18T00:48:32.455Z,58.5
2019-02-18T00:49:22.263Z,58.5
2019-02-18T00:50:12.586Z,58.5
2019-02-18T00:51:02.063Z,58.4
2019-02-18T00:51:52.718Z,58.4
2019-02-18T00:52:42.737Z,58.4
2019-02-18T00:53:33.427Z,58.4
2019-02-18T00:54:23.150Z,58.4
2019-02-18T00:55:12.921Z,58.4
2019-02-18T00:56:02.725Z,58.4
2019-02-18T00:56:53.297Z,58.3
2019-02-18T00:57:43.390Z,58.3
2019-02-18T00:58:33.150Z,58.4
2019-02-18T00:59:23.009Z,58.3
2019-02-18T01:00:13.285Z,58.3
2019-02-18T01:01:03.623Z,58.3
2019-02-18T01:01:53.705Z,58.3
2019-02-18T01:02:43.162Z,58.3
2019-02-18T01:03:33.479Z,58.3
2019-02-18T01:04:23.836Z,58.2
2019-02-18T01:05:13.682Z,58.2
2019-02-18T01:06:03.440Z,58.2
2019-02-18T01:06:53.770Z,58.2
2019-02-18T01:07:44.072Z,58.1
2019-02-18T01:08:34.140Z,58.1
2019-02-18T01:09:24.187Z,58.1
2019-02-18T01:10:14.290Z,58.1
2019-02-18T01:11:03.569Z,58.1
2019-02-18T01:11:54.074Z,58.1
2019-02-18T01:12:44.151Z,58.1
2019-02-18T01:13:34.183Z,58.1
2019-02-18T01:14:24.529Z,58.1
2019-02-18T01:15:14.360Z,58
2019-02-18T01:16:04.687Z,58
2019-02-18T01:16:54.166Z,58
2019-02-18T01:17:44.765Z,58
2019-02-18T01:18:35.109Z,57.9
2019-02-18T01:19:25.140Z,57.9
2019-02-18T01:20:15.064Z,57.9
2019-02-18T01:21:04.706Z,57.9
2019-02-18T01:21:55.036Z,57.9
2019-02-18T01:22:45.542Z,57.9
2019-02-18T01:23:35.486Z,57.9
2019-02-18T01:24:24.969Z,57.9
2019-02-18T01:25:15.081Z,57.8
2019-02-18T01:26:05.331Z,57.8
2019-02-18T01:26:55.383Z,57.8
2019-02-18T01:27:45.221Z,57.8
2019-02-18T01:28:35.541Z,57.8
2019-02-18T01:29:25.582Z,57.8
2019-02-18T01:32:46.097Z,57.7
2019-02-18T01:33:35.273Z,57.7
2019-02-18T01:34:26.202Z,57.7
2019-02-18T01:35:15.414Z,57.7
2019-02-18T01:36:05.770Z,57.6
2019-02-18T01:36:56.077Z,57.6
2019-02-18T01:37:49.950Z,57.6
2019-02-18T01:38:36.197Z,57.6
2019-02-18T01:39:26.270Z,57.6
2019-02-18T01:40:16.439Z,57.6
2019-02-18T01:41:06.691Z,57.6
2019-02-18T01:41:56.139Z,57.6
2019-02-18T01:42:46.764Z,57.5
2019-02-18T01:43:35.990Z,57.5
2019-02-18T01:44:26.617Z,57.5
2019-02-18T01:45:16.105Z,57.5
2019-02-18T01:46:07.000Z,57.5
2019-02-18T01:46:56.815Z,57.4
2019-02-18T01:47:46.549Z,57.4
2019-02-18T01:48:36.925Z,57.4
2019-02-18T01:49:26.714Z,57.4
2019-02-18T01:50:17.487Z,57.4
2019-02-18T01:51:06.798Z,57.4
2019-02-18T01:51:56.561Z,57.4
2019-02-18T01:52:47.226Z,57.4
2019-02-18T01:53:37.242Z,57.3
2019-02-18T01:54:26.736Z,57.3
2019-02-18T01:55:16.872Z,57.3
2019-02-18T01:56:07.411Z,57.3
2019-02-18T01:56:57.169Z,57.3
2019-02-18T01:57:47.514Z,57.3
2019-02-18T01:58:36.822Z,57.3
2019-02-18T01:59:27.351Z,57.3
2019-02-18T02:00:16.713Z,57.2
2019-02-18T02:01:07.258Z,57.2
2019-02-18T02:01:57.318Z,57.2
2019-02-18T02:02:47.229Z,57.2
2019-02-18T02:03:38.251Z,57.2
2019-02-18T02:04:27.235Z,57.1
2019-02-18T02:05:17.673Z,57.1
2019-02-18T02:06:07.550Z,57.1
2019-02-18T02:06:57.951Z,57.1
2019-02-18T02:07:58.978Z,57.1
2019-02-18T02:08:37.798Z,57.1
2019-02-18T02:09:27.270Z,57.1
2019-02-18T02:10:17.655Z,57.1
2019-02-18T02:11:07.673Z,57.1
2019-02-18T02:11:58.008Z,57
2019-02-18T02:12:48.833Z,57
2019-02-18T02:13:38.637Z,57
2019-02-18T02:14:28.205Z,57
2019-02-18T02:15:19.075Z,56.9
2019-02-18T02:16:08.509Z,56.9
2019-02-18T02:16:58.608Z,56.9
2019-02-18T02:17:48.640Z,56.9
2019-02-18T02:18:39.245Z,56.9
2019-02-18T02:19:29.308Z,56.9
2019-02-18T02:20:19.092Z,56.9
2019-02-18T02:21:08.382Z,56.8
2019-02-18T02:21:59.198Z,56.8
2019-02-18T02:22:49.248Z,56.8
2019-02-18T02:23:39.310Z,56.8
2019-02-18T02:24:28.822Z,56.8
2019-02-18T02:25:19.155Z,56.8
2019-02-18T02:26:09.504Z,56.8
2019-02-18T02:26:59.550Z,56.8
2019-02-18T02:27:49.602Z,56.8
2019-02-18T02:28:39.380Z,56.8
2019-02-18T02:29:29.487Z,56.7
2019-02-18T02:30:19.938Z,56.7
2019-02-18T02:31:09.597Z,56.7
2019-02-18T02:32:00.331Z,56.7
2019-02-18T02:32:49.712Z,56.6
2019-02-18T02:33:40.034Z,56.6
2019-02-18T02:34:29.887Z,56.6
2019-02-18T02:35:20.231Z,56.6
2019-02-18T02:36:10.462Z,56.6
2019-02-18T02:36:59.709Z,56.6
2019-02-18T02:37:50.108Z,56.6
2019-02-18T02:38:39.281Z,56.5
2019-02-18T02:39:30.772Z,56.5
2019-02-18T02:40:19.950Z,56.5
2019-02-18T02:41:10.546Z,56.5
2019-02-18T02:42:00.040Z,56.5
2019-02-18T02:42:50.406Z,56.5
2019-02-18T02:43:40.714Z,56.4
2019-02-18T02:44:31.144Z,56.4
2019-02-18T02:45:20.905Z,56.4
2019-02-18T02:46:11.228Z,56.4
2019-02-18T02:47:00.478Z,56.4
2019-02-18T02:47:50.709Z,56.4
2019-02-18T02:48:41.050Z,56.4
2019-02-18T02:49:31.261Z,56.4
2019-02-18T02:50:21.479Z,56.4
2019-02-18T02:51:11.656Z,56.3
2019-02-18T02:52:01.303Z,56.3
2019-02-18T02:52:50.890Z,56.3
2019-02-18T02:53:41.729Z,56.3
2019-02-18T02:54:30.741Z,56.3
2019-02-18T02:55:21.525Z,56.3
2019-02-18T02:56:11.676Z,56.3
2019-02-18T02:57:01.406Z,56.3
2019-02-18T02:57:50.908Z,56.2
2019-02-18T02:58:41.470Z,56.2
2019-02-18T02:59:30.810Z,56.2
2019-02-18T03:00:21.506Z,56.2
2019-02-18T03:01:12.262Z,56.2
2019-02-18T03:02:00.721Z,56.1
2019-02-18T03:02:51.280Z,56.1
2019-02-18T03:03:41.118Z,56.1
2019-02-18T03:04:31.428Z,56.1
2019-02-18T03:08:04.142Z,56
2019-02-18T03:08:53.771Z,56
2019-02-18T03:09:43.978Z,56
2019-02-18T03:10:34.013Z,56
2019-02-18T03:11:24.119Z,56
2019-02-18T03:12:14.161Z,56
2019-02-18T03:13:04.226Z,55.9
2019-02-18T03:13:54.259Z,55.9
2019-02-18T03:14:44.344Z,55.9
2019-02-18T03:15:34.646Z,55.9
2019-02-18T03:16:24.436Z,55.9
2019-02-18T03:17:13.998Z,55.9
2019-02-18T03:18:05.097Z,55.9
2019-02-18T03:18:55.213Z,55.9
2019-02-18T03:19:45.416Z,55.8
2019-02-18T03:20:35.197Z,55.8
2019-02-18T03:21:24.786Z,55.8
2019-02-18T03:22:15.034Z,55.8
2019-02-18T03:23:05.187Z,55.8
2019-02-18T03:23:55.281Z,55.8
2019-02-18T03:24:45.068Z,55.8
2019-02-18T03:25:35.454Z,55.8
2019-02-18T03:26:25.617Z,55.7
2019-02-18T03:27:15.527Z,55.7
2019-02-18T03:28:05.761Z,55.7
2019-02-18T03:28:56.055Z,55.7
2019-02-18T03:29:46.476Z,55.7
2019-02-18T03:30:36.060Z,55.6
2019-02-18T03:31:26.379Z,55.6
2019-02-18T03:32:16.151Z,55.6
2019-02-18T03:33:06.765Z,55.6
2019-02-18T03:33:56.713Z,55.6
2019-02-18T03:34:45.957Z,55.6
2019-02-18T03:35:36.585Z,55.6
2019-02-18T03:36:26.311Z,55.6
2019-02-18T03:37:16.395Z,55.5
2019-02-18T03:38:06.805Z,55.5
2019-02-18T03:38:56.530Z,55.5
2019-02-18T03:39:46.623Z,55.5
2019-02-18T03:40:37.140Z,55.5
2019-02-18T03:41:27.187Z,55.4
2019-02-18T03:42:16.750Z,55.4
2019-02-18T03:43:07.033Z,55.4
2019-02-18T03:43:56.849Z,55.4
2019-02-18T03:44:47.170Z,55.4
2019-02-18T03:45:36.955Z,55.4
2019-02-18T03:46:27.363Z,55.4
2019-02-18T03:47:16.852Z,55.4
2019-02-18T03:48:07.732Z,55.4
2019-02-18T03:48:57.174Z,55.3
2019-02-18T03:49:47.604Z,55.3
2019-02-18T03:50:37.446Z,55.3
2019-02-18T03:51:27.356Z,55.3
2019-02-18T03:52:17.679Z,55.3
2019-02-18T03:53:07.494Z,55.3
2019-02-18T03:53:58.049Z,55.3
2019-02-18T03:54:48.138Z,55.3
2019-02-18T03:55:37.969Z,55.3
2019-02-18T03:56:28.004Z,55.2
2019-02-18T03:57:17.502Z,55.2
2019-02-18T03:58:08.103Z,55.2
2019-02-18T03:58:57.861Z,55.2
2019-02-18T03:59:48.001Z,55.2
2019-02-18T04:00:37.975Z,55.1
2019-02-18T04:01:28.331Z,55.1
2019-02-18T04:02:18.396Z,55.1
2019-02-18T04:03:07.871Z,55.1
2019-02-18T04:03:58.223Z,55.1
2019-02-18T04:04:48.269Z,55.1
2019-02-18T04:05:38.583Z,55.1
2019-02-18T04:06:28.253Z,55.1
2019-02-18T04:07:18.717Z,55
2019-02-18T04:08:08.768Z,55
2019-02-18T04:08:59.121Z,55
2019-02-18T04:09:48.620Z,55
2019-02-18T04:10:38.983Z,55
2019-02-18T04:11:29.117Z,54.9
2019-02-18T04:12:18.802Z,54.9
2019-02-18T04:13:09.470Z,54.9
2019-02-18T04:13:59.300Z,54.9
2019-02-18T04:14:49.509Z,54.9
2019-02-18T04:15:39.302Z,54.9
2019-02-18T04:16:29.060Z,54.9
2019-02-18T04:17:18.896Z,54.9
2019-02-18T04:18:09.515Z,54.9
2019-02-18T04:18:59.568Z,54.8
2019-02-18T04:19:49.832Z,54.8
2019-02-18T04:20:39.705Z,54.8
2019-02-18T04:21:29.265Z,54.8
2019-02-18T04:22:19.723Z,54.8
2019-02-18T04:23:09.265Z,54.8
2019-02-18T04:23:59.041Z,54.8
2019-02-18T04:24:49.702Z,54.8
2019-02-18T04:25:40.145Z,54.8
2019-02-18T04:26:30.163Z,54.8
2019-02-18T04:27:20.099Z,54.7
2019-02-18T04:28:09.877Z,54.7
2019-02-18T04:28:59.948Z,54.7
2019-02-18T04:29:50.239Z,54.7
2019-02-18T04:30:40.377Z,54.7
2019-02-18T04:31:30.527Z,54.6
2019-02-18T04:32:20.718Z,54.6
2019-02-18T04:33:10.569Z,54.6
2019-02-18T04:34:00.839Z,54.6
2019-02-18T04:34:50.345Z,54.6
2019-02-18T04:35:40.653Z,54.6
2019-02-18T04:36:30.736Z,54.6
2019-02-18T04:37:21.096Z,54.6
2019-02-18T04:38:10.302Z,54.6
2019-02-18T04:39:00.614Z,54.5
2019-02-18T04:39:50.971Z,54.5
2019-02-18T04:40:41.326Z,54.5
2019-02-18T04:41:30.854Z,54.5
2019-02-18T04:42:21.402Z,54.4
2019-02-18T04:43:11.441Z,54.4
2019-02-18T04:44:01.289Z,54.4
2019-02-18T04:44:50.791Z,54.4
2019-02-18T04:45:40.868Z,54.4
2019-02-18T04:46:31.733Z,54.4
2019-02-18T04:47:21.556Z,54.4
2019-02-18T04:48:11.869Z,54.4
2019-02-18T04:49:01.599Z,54.4
2019-02-18T04:49:51.920Z,54.3
2019-02-18T04:50:41.720Z,54.3
2019-02-18T04:51:32.080Z,54.3
2019-02-18T04:52:21.827Z,54.3
2019-02-18T04:53:11.893Z,54.3
2019-02-18T04:54:01.958Z,54.3
2019-02-18T04:54:52.001Z,54.3
2019-02-18T04:55:41.485Z,54.3
2019-02-18T04:56:32.436Z,54.3
2019-02-18T04:57:22.461Z,54.3
2019-02-18T04:58:12.554Z,54.3
2019-02-18T04:59:02.026Z,54.2
2019-02-18T04:59:52.383Z,54.2
2019-02-18T05:00:42.187Z,54.2
2019-02-18T05:01:32.767Z,54.2
2019-02-18T05:02:22.812Z,54.1
2019-02-18T05:03:12.313Z,54.1
2019-02-18T05:04:02.764Z,54.1
2019-02-18T05:04:52.749Z,54.1
2019-02-18T05:05:43.035Z,54.1
2019-02-18T05:06:32.869Z,54.1
2019-02-18T05:07:23.135Z,54.1
2019-02-18T05:08:13.203Z,54.1
2019-02-18T05:09:09.301Z,54
2019-02-18T05:09:53.311Z,54
2019-02-18T05:10:43.406Z,54
2019-02-18T05:11:33.167Z,54
2019-02-18T05:12:22.939Z,54
2019-02-18T05:13:13.004Z,54
2019-02-18T05:14:03.377Z,53.9
2019-02-18T05:14:53.381Z,53.9
2019-02-18T05:15:44.120Z,53.8
2019-02-18T05:16:33.509Z,53.8
2019-02-18T05:17:23.297Z,53.7
2019-02-18T05:18:13.323Z,53.6
2019-02-18T05:19:03.421Z,53.6
2019-02-18T05:19:53.470Z,53.6
2019-02-18T05:20:43.842Z,53.6
2019-02-18T05:21:33.859Z,53.6
2019-02-18T05:22:23.610Z,53.6
2019-02-18T05:23:13.960Z,53.6
2019-02-18T05:24:03.793Z,53.5
2019-02-18T05:24:54.091Z,53.4
2019-02-18T05:25:43.866Z,53.4
2019-02-18T05:26:33.916Z,53.3
2019-02-18T05:27:35.777Z,53.3
2019-02-18T05:28:14.595Z,53.2
2019-02-18T05:29:04.432Z,53.2
2019-02-18T05:29:54.707Z,53.1
2019-02-18T05:30:44.571Z,53.1
2019-02-18T05:31:34.567Z,53.1
2019-02-18T05:32:24.380Z,53.1
2019-02-18T05:33:14.944Z,53
2019-02-18T05:34:05.089Z,53
2019-02-18T05:34:54.757Z,53
2019-02-18T05:35:44.268Z,52.9
2019-02-18T05:36:34.911Z,52.9
2019-02-18T05:37:24.291Z,52.9
2019-02-18T05:38:14.824Z,52.9
2019-02-18T05:39:04.012Z,52.9
2019-02-18T05:39:56.957Z,52.9
2019-02-18T05:40:44.515Z,52.9
2019-02-18T05:41:35.111Z,52.9
2019-02-18T05:42:24.872Z,52.9
2019-02-18T05:43:15.334Z,52.9
2019-02-18T05:44:04.374Z,52.8
2019-02-18T05:44:55.231Z,52.8
2019-02-18T05:45:45.541Z,52.8
2019-02-18T05:46:34.784Z,52.8
2019-02-18T05:47:25.148Z,52.8
2019-02-18T05:48:15.520Z,52.8
2019-02-18T05:49:05.006Z,52.8
2019-02-18T05:49:56.161Z,52.8
2019-02-18T05:50:45.853Z,52.8
2019-02-18T05:51:35.912Z,52.8
2019-02-18T05:52:25.214Z,52.7
2019-02-18T05:53:15.602Z,52.7
2019-02-18T05:54:05.852Z,52.7
2019-02-18T05:54:56.148Z,52.7
2019-02-18T05:55:46.234Z,52.6
2019-02-18T05:56:36.541Z,52.6
2019-02-18T05:57:26.801Z,52.6
2019-02-18T05:58:16.650Z,52.6
2019-02-18T05:59:06.505Z,52.6
2019-02-18T05:59:56.226Z,52.6
2019-02-18T06:00:46.080Z,52.6
2019-02-18T06:01:36.060Z,52.6
2019-02-18T06:02:26.974Z,52.6
2019-02-18T06:03:15.651Z,52.6
2019-02-18T06:04:07.080Z,52.5
2019-02-18T06:06:03.986Z,52.4
2019-02-18T06:06:54.794Z,52.4
2019-02-18T06:07:44.927Z,52.4
2019-02-18T06:08:34.082Z,52.4
2019-02-18T06:09:33.763Z,52.4
2019-02-18T06:13:34.397Z,52.3
2019-02-18T06:14:24.764Z,52.3
2019-02-18T06:15:14.284Z,52.3
2019-02-18T06:16:05.399Z,52.3
2019-02-18T06:16:55.519Z,52.3
2019-02-18T06:17:45.497Z,52.3
2019-02-18T06:18:35.825Z,52.3
2019-02-18T06:19:25.064Z,52.3
2019-02-18T06:20:15.473Z,52.3
2019-02-18T06:21:05.470Z,52.3
2019-02-18T06:21:55.534Z,52.2
2019-02-18T06:22:45.860Z,52.2
2019-02-18T06:23:50.575Z,52.2
2019-02-18T06:24:25.568Z,52.2
2019-02-18T06:25:15.803Z,52.2
2019-02-18T06:26:05.955Z,52.1
2019-02-18T06:26:55.870Z,52.1
2019-02-18T06:27:45.675Z,52.1
2019-02-18T06:28:36.043Z,52.1
2019-02-18T06:29:26.355Z,52.1
2019-02-18T06:30:15.830Z,52.1
2019-02-18T06:31:06.469Z,52.1
2019-02-18T06:31:55.935Z,52.1
2019-02-18T06:32:46.292Z,52.1
2019-02-18T06:33:36.134Z,52.1
2019-02-18T06:34:26.741Z,52
2019-02-18T06:35:16.281Z,52
2019-02-18T06:36:06.502Z,52
2019-02-18T06:36:56.681Z,52
2019-02-18T06:41:56.883Z,51.9
2019-02-18T06:42:46.673Z,51.9
2019-02-18T06:43:37.287Z,51.9
2019-02-18T06:44:27.075Z,51.9
2019-02-18T06:45:17.403Z,51.8
2019-02-18T06:46:07.192Z,51.9
2019-02-18T06:46:57.503Z,51.8
2019-02-18T06:47:46.755Z,51.8
2019-02-18T06:48:37.590Z,51.8
2019-02-18T06:49:26.955Z,51.8
2019-02-18T06:50:17.287Z,51.8
2019-02-18T06:51:07.784Z,51.8
2019-02-18T06:51:57.862Z,51.8
2019-02-18T06:52:47.120Z,51.8
2019-02-18T06:53:37.710Z,51.7
2019-02-18T06:54:42.717Z,51.7
2019-02-18T06:55:17.827Z,51.7
2019-02-18T06:56:08.170Z,51.7
2019-02-18T06:56:58.271Z,51.7
2019-02-18T06:57:48.005Z,51.6
2019-02-18T06:58:38.044Z,51.6
2019-02-18T06:59:27.819Z,51.6
2019-02-18T07:00:18.565Z,51.6
2019-02-18T07:01:07.970Z,51.6
2019-02-18T07:01:57.739Z,51.6
2019-02-18T07:02:48.909Z,51.5
2019-02-18T07:03:37.578Z,51.5
2019-02-18T07:06:04.395Z,51.4
2019-02-18T07:06:55.281Z,51.1
2019-02-18T07:07:43.958Z,50.9
2019-02-18T07:08:34.111Z,50.8
2019-02-18T07:09:24.851Z,50.5
2019-02-18T07:10:13.292Z,50.4
2019-02-18T07:11:05.096Z,50.2
2019-02-18T07:11:54.844Z,49.9
2019-02-18T07:12:45.121Z,49.9
2019-02-18T07:13:35.318Z,49.8
2019-02-18T07:14:25.023Z,49.7
2019-02-18T07:15:14.481Z,49.7
2019-02-18T07:16:05.404Z,49.7
2019-02-18T07:16:55.384Z,49.6
2019-02-18T07:17:45.178Z,49.6
2019-02-18T07:18:35.238Z,49.6
2019-02-18T07:19:57.393Z,49.5
2019-02-18T07:20:15.409Z,49.5
2019-02-18T07:21:05.163Z,49.5
2019-02-18T07:21:55.493Z,49.4
2019-02-18T07:22:46.088Z,49.4
2019-02-18T07:23:35.615Z,49.4
2019-02-18T07:24:25.756Z,49.4
2019-02-18T07:25:15.990Z,49.4
2019-02-18T07:26:05.766Z,49.4
2019-02-18T07:26:56.025Z,49.4
2019-02-18T07:27:46.157Z,49.3
2019-02-18T07:28:35.125Z,49.3
2019-02-18T07:29:26.008Z,49.3
2019-02-18T07:30:15.492Z,49.3
2019-02-18T07:31:06.111Z,49.3
2019-02-18T07:31:56.230Z,49.3
2019-02-18T07:32:45.975Z,49.3
2019-02-18T07:33:35.765Z,49.3
2019-02-18T07:34:26.520Z,49.3
2019-02-18T07:35:16.501Z,49.2
2019-02-18T07:36:06.466Z,49.2
2019-02-18T07:36:57.111Z,49.2
2019-02-18T07:38:00.965Z,49.2
2019-02-18T07:38:35.787Z,49.1
2019-02-18T07:39:26.487Z,49.1
2019-02-18T07:40:17.240Z,49.1
2019-02-18T07:41:06.822Z,49.1
2019-02-18T07:41:56.856Z,49.1
2019-02-18T07:42:46.938Z,49.1
2019-02-18T07:43:36.985Z,49.1
2019-02-18T07:44:27.050Z,49
2019-02-18T07:45:17.366Z,49
2019-02-18T07:46:07.153Z,48.9
2019-02-18T07:46:57.501Z,48.9
2019-02-18T07:47:46.704Z,48.8
2019-02-18T07:48:39.731Z,48.8
2019-02-18T07:49:27.659Z,48.8
2019-02-18T07:50:24.754Z,48.7
2019-02-18T07:51:10.969Z,48.6
2019-02-18T07:51:57.559Z,48.6
2019-02-18T07:52:47.339Z,48.6
2019-02-18T07:53:37.665Z,48.6
2019-02-18T07:54:27.737Z,48.6
2019-02-18T07:55:18.055Z,48.6
2019-02-18T07:56:08.133Z,48.5
2019-02-18T07:56:57.883Z,48.5
2019-02-18T07:57:47.953Z,48.5
2019-02-18T07:58:37.715Z,48.5
2019-02-18T07:59:27.551Z,48.4
2019-02-18T08:00:18.125Z,48.4
2019-02-18T08:01:08.247Z,48.4
2019-02-18T08:01:58.538Z,48.4
2019-02-18T08:02:48.643Z,48.4
2019-02-18T08:03:38.378Z,48.4
2019-02-18T08:04:28.130Z,48.4
2019-02-18T08:05:18.500Z,48.4
2019-02-18T08:06:08.265Z,48.3
2019-02-18T08:06:58.047Z,48.3
2019-02-18T08:07:48.655Z,48.3
2019-02-18T08:08:38.271Z,48.3
2019-02-18T08:09:27.933Z,48.3
2019-02-18T08:10:19.083Z,48.3
2019-02-18T08:11:08.666Z,48.3
2019-02-18T08:11:58.641Z,48.3
2019-02-18T08:12:48.439Z,48.2
2019-02-18T08:13:39.145Z,48.2
2019-02-18T08:14:29.170Z,48.2
2019-02-18T08:15:19.197Z,48.2
2019-02-18T08:16:08.412Z,48.1
2019-02-18T08:16:59.317Z,48.1
2019-02-18T08:17:49.622Z,48.1
2019-02-18T08:18:39.707Z,48.1
2019-02-18T08:19:29.464Z,48.1
2019-02-18T08:20:19.507Z,48.1
2019-02-18T08:21:09.279Z,48.1
2019-02-18T08:21:59.376Z,48.1
2019-02-18T08:22:49.972Z,48.1
2019-02-18T08:23:39.747Z,48
2019-02-18T08:24:29.529Z,48
2019-02-18T08:25:19.619Z,48
2019-02-18T08:26:10.251Z,48
2019-02-18T08:27:00.260Z,47.9
2019-02-18T08:27:50.019Z,47.9
2019-02-18T08:28:40.416Z,47.9
2019-02-18T08:29:30.146Z,47.9
2019-02-18T08:30:19.694Z,47.9
2019-02-18T08:31:09.980Z,47.9
2019-02-18T08:32:00.303Z,47.9
2019-02-18T08:32:50.087Z,47.9
2019-02-18T08:33:40.741Z,47.9
2019-02-18T08:34:30.490Z,47.9
2019-02-18T08:35:20.531Z,47.8
2019-02-18T08:36:10.616Z,47.8
2019-02-18T08:37:00.665Z,47.8
2019-02-18T08:37:50.811Z,47.8
2019-02-18T08:38:40.575Z,47.8
2019-02-18T08:39:30.875Z,47.8
2019-02-18T08:40:26.558Z,47.8
2019-02-18T08:41:10.425Z,47.8
2019-02-18T08:42:00.255Z,47.8
2019-02-18T08:42:50.810Z,47.7
2019-02-18T08:43:40.603Z,47.7
2019-02-18T08:44:31.176Z,47.7
2019-02-18T08:45:21.272Z,47.7
2019-02-18T08:46:11.310Z,47.7
2019-02-18T08:47:01.091Z,47.6
2019-02-18T08:47:50.870Z,47.6
2019-02-18T08:48:41.762Z,47.6
2019-02-18T08:49:31.524Z,47.6
2019-02-18T08:50:21.863Z,47.6
2019-02-18T08:51:11.685Z,47.6
2019-02-18T08:52:01.162Z,47.6
2019-02-18T08:52:51.494Z,47.6
2019-02-18T08:53:41.859Z,47.6
2019-02-18T08:54:31.412Z,47.5
2019-02-18T08:55:21.953Z,47.5
2019-02-18T08:56:12.277Z,47.5
2019-02-18T08:57:01.222Z,47.5
2019-02-18T08:57:52.109Z,47.5
2019-02-18T08:58:42.449Z,47.4
2019-02-18T08:59:31.949Z,47.4
2019-02-18T09:00:22.002Z,47.4
2019-02-18T09:01:12.326Z,47.4
2019-02-18T09:02:02.399Z,47.4
2019-02-18T09:02:52.764Z,47.4
2019-02-18T09:03:42.280Z,47.4
2019-02-18T09:04:32.582Z,47.4
2019-02-18T09:05:23.534Z,47.3
2019-02-18T09:06:12.396Z,47.4
2019-02-18T09:07:03.071Z,47.3
2019-02-18T09:07:52.534Z,47.3
2019-02-18T09:08:42.667Z,47.3
2019-02-18T09:09:32.914Z,47.3
2019-02-18T09:10:34.686Z,47.3
2019-02-18T09:11:13.337Z,47.3
2019-02-18T09:12:03.083Z,47.3
2019-02-18T09:12:52.896Z,47.3
2019-02-18T09:13:43.261Z,47.2
2019-02-18T09:14:32.976Z,47.2
2019-02-18T09:15:23.321Z,47.2
2019-02-18T09:16:13.631Z,47.1
2019-02-18T09:17:03.231Z,47.2
2019-02-18T09:17:53.843Z,47.1
2019-02-18T09:18:42.895Z,47.1
2019-02-18T09:19:33.400Z,47.1
2019-02-18T09:20:26.541Z,47.1
2019-02-18T09:21:13.191Z,47
2019-02-18T09:22:03.785Z,47
2019-02-18T09:22:53.373Z,47
2019-02-18T09:23:44.208Z,46.9
2019-02-18T09:24:33.953Z,46.9
2019-02-18T09:25:24.330Z,46.9
2019-02-18T09:26:13.305Z,46.8
2019-02-18T09:27:03.418Z,46.7
2019-02-18T09:27:54.568Z,46.6
2019-02-18T09:28:44.293Z,46.6
2019-02-18T09:29:34.010Z,46.5
2019-02-18T09:30:23.890Z,46.4
2019-02-18T09:31:14.211Z,46.4
2019-02-18T09:32:03.713Z,46.3
2019-02-18T09:32:53.783Z,46.3
2019-02-18T09:33:43.844Z,46.3
2019-02-18T09:34:34.228Z,46.2
2019-02-18T09:35:24.274Z,46.2
2019-02-18T09:36:14.006Z,46.1
2019-02-18T09:37:04.102Z,46.1
2019-02-18T09:37:54.697Z,46.1
2019-02-18T09:38:44.732Z,46.1
2019-02-18T09:39:34.720Z,46.1
2019-02-18T09:40:24.045Z,46.1
2019-02-18T09:41:14.086Z,46.2
2019-02-18T09:42:05.049Z,46.2
2019-02-18T09:42:53.732Z,46.3
2019-02-18T09:43:44.585Z,46.3
2019-02-18T09:44:34.579Z,46.4
2019-02-18T09:45:24.724Z,46.4
2019-02-18T09:46:14.966Z,46.6
2019-02-18T09:47:05.533Z,46.7
2019-02-18T09:47:57.019Z,46.8
2019-02-18T09:48:44.873Z,46.9
2019-02-18T09:49:35.474Z,47
2019-02-18T09:50:26.028Z,47.1
2019-02-18T09:51:15.589Z,47.1
2019-02-18T09:52:05.170Z,47.3
2019-02-18T09:52:55.418Z,47.3
2019-02-18T09:53:46.031Z,47.4
2019-02-18T09:54:36.061Z,47.6
2019-02-18T09:55:25.244Z,47.6
2019-02-18T09:56:15.981Z,47.7
2019-02-18T09:57:06.491Z,47.8
2019-02-18T09:57:55.783Z,47.9
2019-02-18T09:58:46.098Z,47.9
2019-02-18T09:59:36.658Z,48
2019-02-18T10:00:26.445Z,48.1
2019-02-18T10:01:16.493Z,48.2
2019-02-18T10:02:06.826Z,48.3
2019-02-18T10:02:56.058Z,48.3
2019-02-18T10:03:46.413Z,48.4
2019-02-18T10:04:37.019Z,48.4
2019-02-18T10:07:04.525Z,48.6
2019-02-18T10:07:53.758Z,48.8
2019-02-18T10:08:44.370Z,48.9
2019-02-18T10:09:34.120Z,48.9
2019-02-18T10:10:24.833Z,49.1
2019-02-18T10:11:14.245Z,49.1
2019-02-18T10:12:04.632Z,49.2
2019-02-18T10:12:54.902Z,49.3
2019-02-18T10:13:44.433Z,49.4
2019-02-18T10:14:34.475Z,49.4
2019-02-18T10:15:25.122Z,49.6
2019-02-18T10:16:14.650Z,49.6
2019-02-18T10:17:04.912Z,49.7
2019-02-18T10:17:55.025Z,49.8
2019-02-18T10:18:44.749Z,49.9
2019-02-18T10:19:34.619Z,49.9
2019-02-18T10:20:25.421Z,50.1
2019-02-18T10:21:15.219Z,50.1
2019-02-18T10:22:05.010Z,50.2
2019-02-18T10:22:55.034Z,50.3
2019-02-18T10:23:45.668Z,50.4
2019-02-18T10:24:35.449Z,50.5
2019-02-18T10:25:25.827Z,50.6
2019-02-18T10:26:15.588Z,50.6
2019-02-18T10:27:05.459Z,50.7
2019-02-18T10:27:55.931Z,50.8
2019-02-18T10:28:45.717Z,50.9
2019-02-18T10:29:36.047Z,50.9
2019-02-18T10:30:25.579Z,51.1
2019-02-18T10:31:15.931Z,51.1
2019-02-18T10:32:05.959Z,51.2
2019-02-18T10:32:56.010Z,51.3
2019-02-18T10:33:44.977Z,51.4
2019-02-18T10:34:35.652Z,51.4
2019-02-18T10:35:28.140Z,51.5
2019-02-18T10:36:16.511Z,51.6
2019-02-18T10:37:06.581Z,51.7
2019-02-18T10:37:59.261Z,51.8
2019-02-18T10:38:46.460Z,51.8
2019-02-18T10:39:36.526Z,51.9
2019-02-18T10:40:25.985Z,52
2019-02-18T10:41:19.029Z,52.1
2019-02-18T10:42:06.373Z,52.2
2019-02-18T10:42:56.713Z,52.3
2019-02-18T10:43:47.066Z,52.3
2019-02-18T10:44:36.600Z,52.4
2019-02-18T10:45:27.291Z,52.5
2019-02-18T10:46:16.968Z,52.6
2019-02-18T10:47:08.798Z,52.7
2019-02-18T10:47:57.380Z,52.8
2019-02-18T10:48:47.140Z,52.8
2019-02-18T10:49:37.484Z,52.9
2019-02-18T10:50:27.279Z,53
2019-02-18T10:51:17.103Z,53.1
2019-02-18T10:52:07.162Z,53.1
2019-02-18T10:52:57.353Z,53.3
2019-02-18T10:53:47.873Z,53.3
2019-02-18T10:54:37.887Z,53.4
2019-02-18T10:55:27.673Z,53.4
2019-02-18T10:56:19.175Z,53.6
2019-02-18T10:57:07.724Z,53.6
2019-02-18T10:57:57.795Z,53.7
2019-02-18T10:58:47.294Z,53.8
2019-02-18T10:59:37.605Z,53.9
2019-02-18T11:00:27.399Z,53.9
2019-02-18T11:01:17.454Z,54
2019-02-18T11:02:08.487Z,54.1
2019-02-18T11:02:57.827Z,54.2
2019-02-18T11:03:47.964Z,54.3
2019-02-18T11:04:38.262Z,54.3
2019-02-18T11:05:29.941Z,54.4
2019-02-18T11:06:18.392Z,54.5
2019-02-18T11:07:07.859Z,54.6
2019-02-18T11:07:58.547Z,54.6
2019-02-18T11:08:48.517Z,54.7
2019-02-18T11:09:38.834Z,54.8
2019-02-18T11:10:28.614Z,54.9
2019-02-18T11:11:21.176Z,54.9
2019-02-18T11:12:08.222Z,55
2019-02-18T11:13:00.349Z,55.1
2019-02-18T11:13:48.926Z,55.2
2019-02-18T11:14:38.692Z,55.3
2019-02-18T11:15:28.444Z,55.3
2019-02-18T11:16:19.061Z,55.4
2019-02-18T11:17:09.161Z,55.4
2019-02-18T11:17:59.452Z,55.5
2019-02-18T11:18:48.973Z,55.6
2019-02-18T11:19:39.376Z,55.6
2019-02-18T11:20:29.076Z,55.7
2019-02-18T11:21:19.413Z,55.8
2019-02-18T11:22:10.964Z,55.9
2019-02-18T11:22:59.268Z,55.9
2019-02-18T11:23:49.866Z,56
2019-02-18T11:24:39.425Z,56.1
2019-02-18T11:25:29.416Z,56.1
2019-02-18T11:26:19.188Z,56.2
2019-02-18T11:27:09.528Z,56.3
2019-02-18T11:27:59.078Z,56.3
2019-02-18T11:28:50.265Z,56.4